sensor_id;sensor_type;location;lat;lon;timestamp;P1;durP1;ratioP1;P2;durP2;ratioP2
83139;SDS011;73027;54.208;19.128;2023-11-19T00:02:21;11.32;;;4.13;;
83139;SDS011;73027;54.208;19.128;2023-11-19T00:04:46;20.05;;;8.43;;
83139;SDS011;73027;54.208;19.128;2023-11-19T00:07:12;18.83;;;7.65;;
83139;SDS011;73027;54.208;19.128;2023-11-19T00:09:39;16.23;;;5.75;;
83139;SDS011;73027;54.208;19.128;2023-11-19T00:12:05;19.00;;;8.18;;
83139;SDS011;73027;54.208;19.128;2023-11-19T00:14:31;15.50;;;6.72;;
83139;SDS011;73027;54.208;19.128;2023-11-19T00:16:56;11.90;;;5.40;;
83139;SDS011;73027;54.208;19.128;2023-11-19T00:19:22;18.75;;;8.43;;
83139;SDS011;73027;54.208;19.128;2023-11-19T00:21:47;13.35;;;5.68;;
83139;SDS011;73027;54.208;19.128;2023-11-19T00:24:13;10.00;;;3.95;;
83139;SDS011;73027;54.208;19.128;2023-11-19T00:29:07;17.73;;;7.65;;
83139;SDS011;73027;54.208;19.128;2023-11-19T00:31:32;17.58;;;7.13;;
83139;SDS011;73027;54.208;19.128;2023-11-19T00:33:57;14.63;;;6.68;;
83139;SDS011;73027;54.208;19.128;2023-11-19T00:36:23;17.27;;;7.70;;
83139;SDS011;73027;54.208;19.128;2023-11-19T00:38:50;17.35;;;7.43;;
83139;SDS011;73027;54.208;19.128;2023-11-19T00:41:15;16.05;;;7.18;;
83139;SDS011;73027;54.208;19.128;2023-11-19T00:43:41;18.33;;;8.10;;
83139;SDS011;73027;54.208;19.128;2023-11-19T00:46:07;14.63;;;6.45;;
83139;SDS011;73027;54.208;19.128;2023-11-19T00:48:33;15.18;;;6.43;;
83139;SDS011;73027;54.208;19.128;2023-11-19T00:50:58;17.92;;;7.43;;
83139;SDS011;73027;54.208;19.128;2023-11-19T00:53:24;18.75;;;7.80;;
83139;SDS011;73027;54.208;19.128;2023-11-19T00:55:50;15.38;;;7.28;;
83139;SDS011;73027;54.208;19.128;2023-11-19T00:58:15;14.88;;;6.70;;
83139;SDS011;73027;54.208;19.128;2023-11-19T01:00:42;17.70;;;7.40;;
83139;SDS011;73027;54.208;19.128;2023-11-19T01:03:08;18.92;;;6.95;;
83139;SDS011;73027;54.208;19.128;2023-11-19T01:05:34;17.13;;;6.63;;
83139;SDS011;73027;54.208;19.128;2023-11-19T01:07:59;10.55;;;3.50;;
83139;SDS011;73027;54.208;19.128;2023-11-19T01:10:24;18.10;;;7.88;;
83139;SDS011;73027;54.208;19.128;2023-11-19T01:12:51;17.77;;;8.10;;
83139;SDS011;73027;54.208;19.128;2023-11-19T01:15:17;9.05;;;4.25;;
83139;SDS011;73027;54.208;19.128;2023-11-19T01:17:44;12.68;;;5.43;;
83139;SDS011;73027;54.208;19.128;2023-11-19T01:20:09;20.17;;;6.85;;
83139;SDS011;73027;54.208;19.128;2023-11-19T01:25:02;17.23;;;7.13;;
83139;SDS011;73027;54.208;19.128;2023-11-19T01:27:30;15.85;;;6.90;;
83139;SDS011;73027;54.208;19.128;2023-11-19T01:29:55;16.20;;;6.88;;
83139;SDS011;73027;54.208;19.128;2023-11-19T01:32:21;15.25;;;6.68;;
83139;SDS011;73027;54.208;19.128;2023-11-19T01:34:49;13.65;;;5.88;;
83139;SDS011;73027;54.208;19.128;2023-11-19T01:37:14;16.85;;;7.32;;
83139;SDS011;73027;54.208;19.128;2023-11-19T01:39:39;13.02;;;5.32;;
83139;SDS011;73027;54.208;19.128;2023-11-19T01:42:05;15.25;;;6.68;;
83139;SDS011;73027;54.208;19.128;2023-11-19T01:44:30;15.60;;;7.10;;
83139;SDS011;73027;54.208;19.128;2023-11-19T01:46:57;11.90;;;4.50;;
83139;SDS011;73027;54.208;19.128;2023-11-19T01:49:22;19.13;;;6.93;;
83139;SDS011;73027;54.208;19.128;2023-11-19T01:51:48;13.73;;;6.55;;
83139;SDS011;73027;54.208;19.128;2023-11-19T01:54:14;15.60;;;6.60;;
83139;SDS011;73027;54.208;19.128;2023-11-19T01:56:40;15.27;;;6.57;;
83139;SDS011;73027;54.208;19.128;2023-11-19T01:59:07;13.25;;;6.25;;
83139;SDS011;73027;54.208;19.128;2023-11-19T02:01:34;12.73;;;6.32;;
83139;SDS011;73027;54.208;19.128;2023-11-19T02:04:04;14.93;;;6.68;;
83139;SDS011;73027;54.208;19.128;2023-11-19T02:06:31;16.00;;;6.85;;
83139;SDS011;73027;54.208;19.128;2023-11-19T02:08:59;15.38;;;6.53;;
83139;SDS011;73027;54.208;19.128;2023-11-19T02:11:25;16.25;;;6.10;;
83139;SDS011;73027;54.208;19.128;2023-11-19T02:13:54;15.60;;;6.70;;
83139;SDS011;73027;54.208;19.128;2023-11-19T02:16:22;15.73;;;6.57;;
83139;SDS011;73027;54.208;19.128;2023-11-19T02:18:47;14.93;;;6.90;;
83139;SDS011;73027;54.208;19.128;2023-11-19T02:21:13;14.38;;;7.15;;
83139;SDS011;73027;54.208;19.128;2023-11-19T02:23:40;13.60;;;5.97;;
83139;SDS011;73027;54.208;19.128;2023-11-19T02:26:10;14.15;;;6.22;;
83139;SDS011;73027;54.208;19.128;2023-11-19T02:28:43;14.88;;;6.38;;
83139;SDS011;73027;54.208;19.128;2023-11-19T02:31:09;17.05;;;6.75;;
83139;SDS011;73027;54.208;19.128;2023-11-19T02:33:38;13.52;;;6.30;;
83139;SDS011;73027;54.208;19.128;2023-11-19T02:36:04;12.32;;;5.85;;
83139;SDS011;73027;54.208;19.128;2023-11-19T02:38:31;19.67;;;6.15;;
83139;SDS011;73027;54.208;19.128;2023-11-19T02:40:57;13.38;;;5.78;;
83139;SDS011;73027;54.208;19.128;2023-11-19T02:43:23;14.20;;;6.00;;
83139;SDS011;73027;54.208;19.128;2023-11-19T02:45:48;13.07;;;5.10;;
83139;SDS011;73027;54.208;19.128;2023-11-19T02:48:14;12.55;;;5.28;;
83139;SDS011;73027;54.208;19.128;2023-11-19T02:50:41;13.95;;;5.20;;
83139;SDS011;73027;54.208;19.128;2023-11-19T02:53:09;12.63;;;5.60;;
83139;SDS011;73027;54.208;19.128;2023-11-19T02:55:34;12.95;;;5.57;;
83139;SDS011;73027;54.208;19.128;2023-11-19T02:58:03;11.50;;;5.05;;
83139;SDS011;73027;54.208;19.128;2023-11-19T03:00:45;11.10;;;5.03;;
83139;SDS011;73027;54.208;19.128;2023-11-19T03:03:19;12.80;;;4.72;;
83139;SDS011;73027;54.208;19.128;2023-11-19T03:05:51;11.00;;;4.65;;
83139;SDS011;73027;54.208;19.128;2023-11-19T03:08:16;10.13;;;4.25;;
83139;SDS011;73027;54.208;19.128;2023-11-19T03:10:42;11.05;;;4.55;;
83139;SDS011;73027;54.208;19.128;2023-11-19T03:13:11;13.50;;;4.05;;
83139;SDS011;73027;54.208;19.128;2023-11-19T03:15:40;11.25;;;4.45;;
83139;SDS011;73027;54.208;19.128;2023-11-19T03:18:06;9.88;;;4.38;;
83139;SDS011;73027;54.208;19.128;2023-11-19T03:20:32;9.35;;;4.15;;
83139;SDS011;73027;54.208;19.128;2023-11-19T03:22:58;10.95;;;4.15;;
83139;SDS011;73027;54.208;19.128;2023-11-19T03:25:26;9.77;;;3.92;;
83139;SDS011;73027;54.208;19.128;2023-11-19T03:28:01;10.77;;;4.07;;
83139;SDS011;73027;54.208;19.128;2023-11-19T03:30:28;10.75;;;3.67;;
83139;SDS011;73027;54.208;19.128;2023-11-19T03:32:56;8.55;;;3.50;;
83139;SDS011;73027;54.208;19.128;2023-11-19T03:35:22;10.75;;;3.65;;
83139;SDS011;73027;54.208;19.128;2023-11-19T03:37:49;9.90;;;3.65;;
83139;SDS011;73027;54.208;19.128;2023-11-19T03:40:15;8.80;;;3.13;;
83139;SDS011;73027;54.208;19.128;2023-11-19T03:42:40;8.73;;;3.20;;
83139;SDS011;73027;54.208;19.128;2023-11-19T03:45:06;8.88;;;3.13;;
83139;SDS011;73027;54.208;19.128;2023-11-19T03:47:35;9.70;;;3.75;;
83139;SDS011;73027;54.208;19.128;2023-11-19T03:50:01;9.32;;;3.38;;
83139;SDS011;73027;54.208;19.128;2023-11-19T03:52:27;9.45;;;4.00;;
83139;SDS011;73027;54.208;19.128;2023-11-19T03:54:53;9.05;;;3.45;;
83139;SDS011;73027;54.208;19.128;2023-11-19T03:57:20;9.88;;;3.45;;
83139;SDS011;73027;54.208;19.128;2023-11-19T03:59:45;7.93;;;3.50;;
83139;SDS011;73027;54.208;19.128;2023-11-19T04:02:11;9.05;;;3.15;;
83139;SDS011;73027;54.208;19.128;2023-11-19T04:04:36;7.40;;;3.13;;
83139;SDS011;73027;54.208;19.128;2023-11-19T04:07:03;8.20;;;2.95;;
83139;SDS011;73027;54.208;19.128;2023-11-19T04:09:30;7.65;;;3.00;;
83139;SDS011;73027;54.208;19.128;2023-11-19T04:11:56;9.27;;;3.45;;
83139;SDS011;73027;54.208;19.128;2023-11-19T04:14:22;7.55;;;2.90;;
83139;SDS011;73027;54.208;19.128;2023-11-19T04:16:47;7.07;;;2.72;;
83139;SDS011;73027;54.208;19.128;2023-11-19T04:19:13;7.85;;;2.88;;
83139;SDS011;73027;54.208;19.128;2023-11-19T04:21:41;8.85;;;3.17;;
83139;SDS011;73027;54.208;19.128;2023-11-19T04:24:07;9.85;;;4.10;;
83139;SDS011;73027;54.208;19.128;2023-11-19T04:26:43;8.82;;;3.80;;
83139;SDS011;73027;54.208;19.128;2023-11-19T04:29:13;9.45;;;4.15;;
83139;SDS011;73027;54.208;19.128;2023-11-19T04:31:40;9.45;;;3.40;;
83139;SDS011;73027;54.208;19.128;2023-11-19T04:34:08;9.25;;;3.65;;
83139;SDS011;73027;54.208;19.128;2023-11-19T04:36:34;11.43;;;4.40;;
83139;SDS011;73027;54.208;19.128;2023-11-19T04:38:59;11.70;;;4.18;;
83139;SDS011;73027;54.208;19.128;2023-11-19T04:41:26;10.32;;;4.38;;
83139;SDS011;73027;54.208;19.128;2023-11-19T04:43:55;12.77;;;4.32;;
83139;SDS011;73027;54.208;19.128;2023-11-19T04:46:20;10.95;;;4.63;;
83139;SDS011;73027;54.208;19.128;2023-11-19T04:48:46;9.25;;;4.10;;
83139;SDS011;73027;54.208;19.128;2023-11-19T04:51:11;14.65;;;4.93;;
83139;SDS011;73027;54.208;19.128;2023-11-19T04:53:37;12.50;;;4.30;;
83139;SDS011;73027;54.208;19.128;2023-11-19T04:56:09;11.05;;;4.35;;
83139;SDS011;73027;54.208;19.128;2023-11-19T04:58:35;11.73;;;4.80;;
83139;SDS011;73027;54.208;19.128;2023-11-19T05:01:01;11.38;;;4.88;;
83139;SDS011;73027;54.208;19.128;2023-11-19T05:03:26;12.63;;;4.50;;
83139;SDS011;73027;54.208;19.128;2023-11-19T05:05:52;12.65;;;4.82;;
83139;SDS011;73027;54.208;19.128;2023-11-19T05:08:17;10.95;;;4.88;;
83139;SDS011;73027;54.208;19.128;2023-11-19T05:10:43;12.60;;;5.30;;
83139;SDS011;73027;54.208;19.128;2023-11-19T05:13:08;13.65;;;5.32;;
83139;SDS011;73027;54.208;19.128;2023-11-19T05:15:33;11.98;;;5.55;;
83139;SDS011;73027;54.208;19.128;2023-11-19T05:17:59;12.15;;;5.40;;
83139;SDS011;73027;54.208;19.128;2023-11-19T05:20:24;13.63;;;5.13;;
83139;SDS011;73027;54.208;19.128;2023-11-19T05:22:49;12.27;;;4.93;;
83139;SDS011;73027;54.208;19.128;2023-11-19T05:25:16;14.75;;;5.68;;
83139;SDS011;73027;54.208;19.128;2023-11-19T05:27:42;13.35;;;5.85;;
83139;SDS011;73027;54.208;19.128;2023-11-19T05:30:07;13.48;;;5.57;;
83139;SDS011;73027;54.208;19.128;2023-11-19T05:32:34;12.90;;;5.68;;
83139;SDS011;73027;54.208;19.128;2023-11-19T05:34:59;13.63;;;5.20;;
83139;SDS011;73027;54.208;19.128;2023-11-19T05:37:24;13.27;;;5.18;;
83139;SDS011;73027;54.208;19.128;2023-11-19T05:39:50;13.07;;;4.97;;
83139;SDS011;73027;54.208;19.128;2023-11-19T05:42:15;13.52;;;5.13;;
83139;SDS011;73027;54.208;19.128;2023-11-19T05:44:41;11.52;;;5.25;;
83139;SDS011;73027;54.208;19.128;2023-11-19T05:47:06;13.57;;;5.40;;
83139;SDS011;73027;54.208;19.128;2023-11-19T05:49:32;12.98;;;5.22;;
83139;SDS011;73027;54.208;19.128;2023-11-19T05:51:58;13.75;;;5.20;;
83139;SDS011;73027;54.208;19.128;2023-11-19T05:54:23;12.52;;;4.72;;
83139;SDS011;73027;54.208;19.128;2023-11-19T05:56:48;12.90;;;5.35;;
83139;SDS011;73027;54.208;19.128;2023-11-19T05:59:14;11.20;;;4.72;;
83139;SDS011;73027;54.208;19.128;2023-11-19T06:01:42;12.52;;;5.05;;
83139;SDS011;73027;54.208;19.128;2023-11-19T06:04:10;14.15;;;5.55;;
83139;SDS011;73027;54.208;19.128;2023-11-19T06:06:36;12.35;;;4.80;;
83139;SDS011;73027;54.208;19.128;2023-11-19T06:09:02;10.93;;;4.82;;
83139;SDS011;73027;54.208;19.128;2023-11-19T06:11:28;15.55;;;4.88;;
83139;SDS011;73027;54.208;19.128;2023-11-19T06:13:53;11.27;;;4.60;;
83139;SDS011;73027;54.208;19.128;2023-11-19T06:16:19;10.43;;;4.13;;
83139;SDS011;73027;54.208;19.128;2023-11-19T06:18:45;10.65;;;4.60;;
83139;SDS011;73027;54.208;19.128;2023-11-19T06:21:11;10.52;;;4.50;;
83139;SDS011;73027;54.208;19.128;2023-11-19T06:23:37;9.50;;;3.95;;
83139;SDS011;73027;54.208;19.128;2023-11-19T06:26:03;11.00;;;4.35;;
83139;SDS011;73027;54.208;19.128;2023-11-19T06:28:30;10.73;;;4.53;;
83139;SDS011;73027;54.208;19.128;2023-11-19T06:30:57;10.45;;;4.53;;
83139;SDS011;73027;54.208;19.128;2023-11-19T06:33:23;10.07;;;4.20;;
83139;SDS011;73027;54.208;19.128;2023-11-19T06:35:49;11.55;;;4.05;;
83139;SDS011;73027;54.208;19.128;2023-11-19T06:38:14;9.48;;;4.35;;
83139;SDS011;73027;54.208;19.128;2023-11-19T06:40:40;11.02;;;3.78;;
83139;SDS011;73027;54.208;19.128;2023-11-19T06:43:06;14.55;;;4.63;;
83139;SDS011;73027;54.208;19.128;2023-11-19T06:45:33;12.43;;;4.70;;
83139;SDS011;73027;54.208;19.128;2023-11-19T06:48:00;14.38;;;5.00;;
83139;SDS011;73027;54.208;19.128;2023-11-19T06:50:28;11.27;;;5.05;;
83139;SDS011;73027;54.208;19.128;2023-11-19T06:52:53;15.50;;;5.05;;
83139;SDS011;73027;54.208;19.128;2023-11-19T06:55:18;13.32;;;5.07;;
83139;SDS011;73027;54.208;19.128;2023-11-19T06:57:44;11.30;;;4.78;;
83139;SDS011;73027;54.208;19.128;2023-11-19T07:00:09;13.57;;;4.55;;
83139;SDS011;73027;54.208;19.128;2023-11-19T07:02:36;12.77;;;4.68;;
83139;SDS011;73027;54.208;19.128;2023-11-19T07:05:01;10.90;;;4.65;;
83139;SDS011;73027;54.208;19.128;2023-11-19T07:07:29;11.15;;;4.82;;
83139;SDS011;73027;54.208;19.128;2023-11-19T07:09:55;11.65;;;4.72;;
83139;SDS011;73027;54.208;19.128;2023-11-19T07:12:21;12.00;;;5.32;;
83139;SDS011;73027;54.208;19.128;2023-11-19T07:14:46;11.57;;;4.68;;
83139;SDS011;73027;54.208;19.128;2023-11-19T07:17:11;11.68;;;4.78;;
83139;SDS011;73027;54.208;19.128;2023-11-19T07:19:37;11.07;;;4.97;;
83139;SDS011;73027;54.208;19.128;2023-11-19T07:22:03;13.25;;;5.38;;
83139;SDS011;73027;54.208;19.128;2023-11-19T07:24:29;14.73;;;5.88;;
83139;SDS011;73027;54.208;19.128;2023-11-19T07:26:54;14.38;;;6.00;;
83139;SDS011;73027;54.208;19.128;2023-11-19T07:29:20;9.55;;;4.32;;
83139;SDS011;73027;54.208;19.128;2023-11-19T07:31:48;16.02;;;5.47;;
83139;SDS011;73027;54.208;19.128;2023-11-19T07:34:14;11.32;;;5.13;;
83139;SDS011;73027;54.208;19.128;2023-11-19T07:36:39;14.55;;;5.57;;
83139;SDS011;73027;54.208;19.128;2023-11-19T07:39:05;14.05;;;5.78;;
83139;SDS011;73027;54.208;19.128;2023-11-19T07:41:30;12.60;;;5.63;;
83139;SDS011;73027;54.208;19.128;2023-11-19T07:43:56;13.07;;;5.75;;
83139;SDS011;73027;54.208;19.128;2023-11-19T07:46:21;14.52;;;6.63;;
83139;SDS011;73027;54.208;19.128;2023-11-19T07:48:47;15.38;;;7.03;;
83139;SDS011;73027;54.208;19.128;2023-11-19T07:51:12;13.70;;;6.20;;
83139;SDS011;73027;54.208;19.128;2023-11-19T07:53:38;12.77;;;5.65;;
83139;SDS011;73027;54.208;19.128;2023-11-19T07:56:08;17.05;;;6.65;;
83139;SDS011;73027;54.208;19.128;2023-11-19T07:58:33;16.45;;;6.88;;
83139;SDS011;73027;54.208;19.128;2023-11-19T08:00:59;13.68;;;6.55;;
83139;SDS011;73027;54.208;19.128;2023-11-19T08:03:26;14.63;;;7.07;;
83139;SDS011;73027;54.208;19.128;2023-11-19T08:05:55;15.05;;;6.70;;
83139;SDS011;73027;54.208;19.128;2023-11-19T08:08:22;15.38;;;6.90;;
83139;SDS011;73027;54.208;19.128;2023-11-19T08:10:47;14.32;;;7.30;;
83139;SDS011;73027;54.208;19.128;2023-11-19T08:13:13;23.98;;;7.80;;
83139;SDS011;73027;54.208;19.128;2023-11-19T08:15:38;16.17;;;6.93;;
83139;SDS011;73027;54.208;19.128;2023-11-19T08:18:04;15.02;;;6.72;;
83139;SDS011;73027;54.208;19.128;2023-11-19T08:20:30;14.88;;;7.53;;
83139;SDS011;73027;54.208;19.128;2023-11-19T08:22:55;18.35;;;8.63;;
83139;SDS011;73027;54.208;19.128;2023-11-19T08:25:20;17.90;;;7.78;;
83139;SDS011;73027;54.208;19.128;2023-11-19T08:27:46;15.35;;;7.75;;
83139;SDS011;73027;54.208;19.128;2023-11-19T08:30:11;17.63;;;7.90;;
83139;SDS011;73027;54.208;19.128;2023-11-19T08:32:37;19.25;;;8.85;;
83139;SDS011;73027;54.208;19.128;2023-11-19T08:35:03;16.85;;;8.02;;
83139;SDS011;73027;54.208;19.128;2023-11-19T08:37:28;16.25;;;7.75;;
83139;SDS011;73027;54.208;19.128;2023-11-19T08:39:54;14.18;;;6.82;;
83139;SDS011;73027;54.208;19.128;2023-11-19T08:42:19;16.95;;;7.80;;
83139;SDS011;73027;54.208;19.128;2023-11-19T08:44:51;17.20;;;8.52;;
83139;SDS011;73027;54.208;19.128;2023-11-19T08:47:19;18.55;;;8.30;;
83139;SDS011;73027;54.208;19.128;2023-11-19T08:49:44;17.60;;;7.85;;
83139;SDS011;73027;54.208;19.128;2023-11-19T08:52:11;21.17;;;8.40;;
83139;SDS011;73027;54.208;19.128;2023-11-19T08:54:36;19.60;;;8.93;;
83139;SDS011;73027;54.208;19.128;2023-11-19T08:57:02;16.65;;;7.47;;
83139;SDS011;73027;54.208;19.128;2023-11-19T08:59:29;16.77;;;7.78;;
83139;SDS011;73027;54.208;19.128;2023-11-19T09:01:55;20.30;;;9.10;;
83139;SDS011;73027;54.208;19.128;2023-11-19T09:04:21;18.40;;;8.43;;
83139;SDS011;73027;54.208;19.128;2023-11-19T09:06:47;21.40;;;8.10;;
83139;SDS011;73027;54.208;19.128;2023-11-19T09:09:13;18.15;;;8.68;;
83139;SDS011;73027;54.208;19.128;2023-11-19T09:11:39;17.65;;;8.35;;
83139;SDS011;73027;54.208;19.128;2023-11-19T09:14:04;19.08;;;8.48;;
83139;SDS011;73027;54.208;19.128;2023-11-19T09:16:29;17.05;;;7.75;;
83139;SDS011;73027;54.208;19.128;2023-11-19T09:18:55;18.45;;;8.10;;
83139;SDS011;73027;54.208;19.128;2023-11-19T09:21:20;17.30;;;8.40;;
83139;SDS011;73027;54.208;19.128;2023-11-19T09:23:45;19.38;;;8.68;;
83139;SDS011;73027;54.208;19.128;2023-11-19T09:26:13;19.65;;;9.40;;
83139;SDS011;73027;54.208;19.128;2023-11-19T09:28:38;18.67;;;9.52;;
83139;SDS011;73027;54.208;19.128;2023-11-19T09:31:12;20.48;;;9.93;;
83139;SDS011;73027;54.208;19.128;2023-11-19T09:33:41;22.92;;;8.98;;
83139;SDS011;73027;54.208;19.128;2023-11-19T09:36:07;19.73;;;8.43;;
83139;SDS011;73027;54.208;19.128;2023-11-19T09:38:33;19.35;;;8.88;;
83139;SDS011;73027;54.208;19.128;2023-11-19T09:40:58;19.17;;;8.23;;
83139;SDS011;73027;54.208;19.128;2023-11-19T09:43:33;23.90;;;9.70;;
83139;SDS011;73027;54.208;19.128;2023-11-19T09:45:58;23.30;;;10.30;;
83139;SDS011;73027;54.208;19.128;2023-11-19T09:48:32;18.58;;;8.30;;
83139;SDS011;73027;54.208;19.128;2023-11-19T09:50:59;21.48;;;9.93;;
83139;SDS011;73027;54.208;19.128;2023-11-19T09:53:26;19.48;;;9.00;;
83139;SDS011;73027;54.208;19.128;2023-11-19T09:55:51;20.70;;;9.30;;
83139;SDS011;73027;54.208;19.128;2023-11-19T09:58:18;19.90;;;8.57;;
83139;SDS011;73027;54.208;19.128;2023-11-19T10:00:43;24.08;;;10.65;;
83139;SDS011;73027;54.208;19.128;2023-11-19T10:03:09;20.75;;;9.10;;
83139;SDS011;73027;54.208;19.128;2023-11-19T10:05:37;23.80;;;10.13;;
83139;SDS011;73027;54.208;19.128;2023-11-19T10:08:04;25.25;;;9.98;;
83139;SDS011;73027;54.208;19.128;2023-11-19T10:10:30;25.25;;;10.13;;
83139;SDS011;73027;54.208;19.128;2023-11-19T10:12:55;24.05;;;10.00;;
83139;SDS011;73027;54.208;19.128;2023-11-19T10:15:21;24.30;;;10.60;;
83139;SDS011;73027;54.208;19.128;2023-11-19T10:17:56;25.15;;;10.15;;
83139;SDS011;73027;54.208;19.128;2023-11-19T10:20:22;24.05;;;10.40;;
83139;SDS011;73027;54.208;19.128;2023-11-19T10:22:48;24.00;;;10.57;;
83139;SDS011;73027;54.208;19.128;2023-11-19T10:25:23;25.80;;;11.45;;
83139;SDS011;73027;54.208;19.128;2023-11-19T10:27:49;26.10;;;11.02;;
83139;SDS011;73027;54.208;19.128;2023-11-19T10:30:33;25.45;;;11.25;;
83139;SDS011;73027;54.208;19.128;2023-11-19T10:33:06;24.40;;;11.30;;
83139;SDS011;73027;54.208;19.128;2023-11-19T10:35:36;25.23;;;11.80;;
83139;SDS011;73027;54.208;19.128;2023-11-19T10:38:19;24.50;;;10.85;;
83139;SDS011;73027;54.208;19.128;2023-11-19T10:40:45;26.27;;;11.55;;
83139;SDS011;73027;54.208;19.128;2023-11-19T10:43:11;27.48;;;11.50;;
83139;SDS011;73027;54.208;19.128;2023-11-19T10:45:37;24.30;;;10.63;;
83139;SDS011;73027;54.208;19.128;2023-11-19T10:48:04;27.88;;;11.55;;
83139;SDS011;73027;54.208;19.128;2023-11-19T10:50:32;25.40;;;11.65;;
83139;SDS011;73027;54.208;19.128;2023-11-19T10:52:59;27.30;;;11.77;;
83139;SDS011;73027;54.208;19.128;2023-11-19T10:55:35;25.15;;;11.32;;
83139;SDS011;73027;54.208;19.128;2023-11-19T10:58:05;30.17;;;12.30;;
83139;SDS011;73027;54.208;19.128;2023-11-19T11:00:45;28.80;;;13.52;;
83139;SDS011;73027;54.208;19.128;2023-11-19T11:03:20;26.48;;;11.75;;
83139;SDS011;73027;54.208;19.128;2023-11-19T11:05:48;29.45;;;13.35;;
83139;SDS011;73027;54.208;19.128;2023-11-19T11:08:15;31.80;;;12.52;;
83139;SDS011;73027;54.208;19.128;2023-11-19T11:11:02;30.63;;;12.88;;
83139;SDS011;73027;54.208;19.128;2023-11-19T11:13:27;26.63;;;13.02;;
83139;SDS011;73027;54.208;19.128;2023-11-19T11:15:53;28.30;;;13.05;;
83139;SDS011;73027;54.208;19.128;2023-11-19T11:18:22;27.17;;;12.13;;
83139;SDS011;73027;54.208;19.128;2023-11-19T11:20:49;27.88;;;12.30;;
83139;SDS011;73027;54.208;19.128;2023-11-19T11:28:43;31.80;;;13.48;;
83139;SDS011;73027;54.208;19.128;2023-11-19T11:34:23;35.28;;;13.77;;
83139;SDS011;73027;54.208;19.128;2023-11-19T11:37:21;30.95;;;12.75;;
83139;SDS011;73027;54.208;19.128;2023-11-19T11:40:13;28.80;;;12.68;;
83139;SDS011;73027;54.208;19.128;2023-11-19T11:42:43;31.40;;;13.02;;
83139;SDS011;73027;54.208;19.128;2023-11-19T11:45:13;29.25;;;12.25;;
83139;SDS011;73027;54.208;19.128;2023-11-19T11:50:12;31.35;;;13.05;;
83139;SDS011;73027;54.208;19.128;2023-11-19T11:58:20;31.95;;;12.55;;
83139;SDS011;73027;54.208;19.128;2023-11-19T12:00:51;32.00;;;13.25;;
83139;SDS011;73027;54.208;19.128;2023-11-19T12:03:16;31.20;;;12.63;;
83139;SDS011;73027;54.208;19.128;2023-11-19T12:05:45;35.45;;;14.68;;
83139;SDS011;73027;54.208;19.128;2023-11-19T12:08:12;30.88;;;13.70;;
83139;SDS011;73027;54.208;19.128;2023-11-19T12:13:13;34.15;;;11.75;;
83139;SDS011;73027;54.208;19.128;2023-11-19T12:18:23;33.40;;;14.02;;
83139;SDS011;73027;54.208;19.128;2023-11-19T12:23:17;31.13;;;12.73;;
83139;SDS011;73027;54.208;19.128;2023-11-19T12:25:42;33.38;;;13.70;;
83139;SDS011;73027;54.208;19.128;2023-11-19T12:28:13;35.30;;;13.52;;
83139;SDS011;73027;54.208;19.128;2023-11-19T12:30:39;33.67;;;12.93;;
83139;SDS011;73027;54.208;19.128;2023-11-19T12:33:10;30.60;;;13.23;;
83139;SDS011;73027;54.208;19.128;2023-11-19T12:35:40;31.77;;;11.98;;
83139;SDS011;73027;54.208;19.128;2023-11-19T12:38:06;33.30;;;13.70;;
83139;SDS011;73027;54.208;19.128;2023-11-19T12:40:31;32.08;;;12.95;;
83139;SDS011;73027;54.208;19.128;2023-11-19T12:42:57;33.15;;;11.50;;
83139;SDS011;73027;54.208;19.128;2023-11-19T12:45:24;31.52;;;12.73;;
83139;SDS011;73027;54.208;19.128;2023-11-19T12:47:49;31.70;;;13.02;;
83139;SDS011;73027;54.208;19.128;2023-11-19T12:52:54;30.27;;;13.07;;
83139;SDS011;73027;54.208;19.128;2023-11-19T12:55:24;33.90;;;13.07;;
83139;SDS011;73027;54.208;19.128;2023-11-19T12:57:54;32.28;;;13.68;;
83139;SDS011;73027;54.208;19.128;2023-11-19T13:00:23;28.63;;;11.68;;
83139;SDS011;73027;54.208;19.128;2023-11-19T13:02:50;34.83;;;14.77;;
83139;SDS011;73027;54.208;19.128;2023-11-19T13:05:27;35.63;;;13.88;;
83139;SDS011;73027;54.208;19.128;2023-11-19T13:07:59;28.17;;;12.50;;
83139;SDS011;73027;54.208;19.128;2023-11-19T13:10:30;30.30;;;12.43;;
83139;SDS011;73027;54.208;19.128;2023-11-19T13:13:14;34.17;;;12.73;;
83139;SDS011;73027;54.208;19.128;2023-11-19T13:15:40;35.08;;;12.98;;
83139;SDS011;73027;54.208;19.128;2023-11-19T13:18:05;30.27;;;12.73;;
83139;SDS011;73027;54.208;19.128;2023-11-19T13:20:32;36.45;;;14.48;;
83139;SDS011;73027;54.208;19.128;2023-11-19T13:22:58;31.65;;;13.30;;
83139;SDS011;73027;54.208;19.128;2023-11-19T13:25:25;29.48;;;11.73;;
83139;SDS011;73027;54.208;19.128;2023-11-19T13:27:51;35.40;;;13.48;;
83139;SDS011;73027;54.208;19.128;2023-11-19T13:30:17;31.52;;;13.18;;
83139;SDS011;73027;54.208;19.128;2023-11-19T13:32:43;29.85;;;12.07;;
83139;SDS011;73027;54.208;19.128;2023-11-19T13:35:12;29.52;;;12.20;;
83139;SDS011;73027;54.208;19.128;2023-11-19T13:37:38;31.23;;;12.85;;
83139;SDS011;73027;54.208;19.128;2023-11-19T13:40:06;33.40;;;13.32;;
83139;SDS011;73027;54.208;19.128;2023-11-19T13:42:32;31.75;;;12.65;;
83139;SDS011;73027;54.208;19.128;2023-11-19T13:44:58;32.35;;;12.80;;
83139;SDS011;73027;54.208;19.128;2023-11-19T13:47:23;29.92;;;12.38;;
83139;SDS011;73027;54.208;19.128;2023-11-19T13:49:49;31.05;;;12.07;;
83139;SDS011;73027;54.208;19.128;2023-11-19T13:52:15;40.15;;;14.38;;
83139;SDS011;73027;54.208;19.128;2023-11-19T13:54:40;31.75;;;12.45;;
83139;SDS011;73027;54.208;19.128;2023-11-19T13:57:06;29.17;;;11.45;;
83139;SDS011;73027;54.208;19.128;2023-11-19T13:59:31;26.73;;;11.18;;
83139;SDS011;73027;54.208;19.128;2023-11-19T14:01:59;27.38;;;11.73;;
83139;SDS011;73027;54.208;19.128;2023-11-19T14:04:24;32.63;;;12.25;;
83139;SDS011;73027;54.208;19.128;2023-11-19T14:06:50;33.47;;;12.25;;
83139;SDS011;73027;54.208;19.128;2023-11-19T14:09:16;29.30;;;12.40;;
83139;SDS011;73027;54.208;19.128;2023-11-19T14:11:42;27.42;;;11.27;;
83139;SDS011;73027;54.208;19.128;2023-11-19T14:14:07;29.63;;;12.15;;
83139;SDS011;73027;54.208;19.128;2023-11-19T14:16:33;33.03;;;13.02;;
83139;SDS011;73027;54.208;19.128;2023-11-19T14:18:59;28.70;;;12.52;;
83139;SDS011;73027;54.208;19.128;2023-11-19T14:21:24;26.73;;;11.75;;
83139;SDS011;73027;54.208;19.128;2023-11-19T14:23:51;28.48;;;11.73;;
83139;SDS011;73027;54.208;19.128;2023-11-19T14:26:17;27.42;;;10.68;;
83139;SDS011;73027;54.208;19.128;2023-11-19T14:28:43;27.40;;;11.95;;
83139;SDS011;73027;54.208;19.128;2023-11-19T14:31:08;25.75;;;10.60;;
83139;SDS011;73027;54.208;19.128;2023-11-19T14:33:33;28.60;;;11.75;;
83139;SDS011;73027;54.208;19.128;2023-11-19T14:36:00;27.48;;;10.95;;
83139;SDS011;73027;54.208;19.128;2023-11-19T14:38:26;30.98;;;11.90;;
83139;SDS011;73027;54.208;19.128;2023-11-19T14:40:51;30.73;;;11.38;;
83139;SDS011;73027;54.208;19.128;2023-11-19T14:43:17;34.60;;;13.57;;
83139;SDS011;73027;54.208;19.128;2023-11-19T14:45:42;27.45;;;10.90;;
83139;SDS011;73027;54.208;19.128;2023-11-19T14:48:08;32.33;;;10.57;;
83139;SDS011;73027;54.208;19.128;2023-11-19T14:50:35;28.73;;;11.48;;